Time;durP1;ratioP1;P1;durP2;ratioP2;P2;SDS_P1;SDS_P2;PMS_P1;PMS_P2;Temp;Humidity;BMP_temperature;BMP_pressure;BME280_temperature;BME280_humidity;BME280_pressure;Samples;Min_cycle;Max_cycle;Signal;HPM_P1;HPM_P2
2023/03/07 00:01:30;;;;;;;14.55;2.40;;;6.30;99.90;;;;;;5007955;28;20061;-66
2023/03/07 00:03:56;;;;;;;13.80;2.67;;;6.60;1.00;;;;;;5010464;28;20129;-66
2023/03/07 00:06:23;;;;;;;18.95;3.75;;;6.20;1.00;;;;;;5007873;28;20046;-66
2023/03/07 00:08:50;;;;;;;15.98;2.63;;;6.50;99.90;;;;;;5011100;28;20758;-66
2023/03/07 00:11:16;;;;;;;10.48;2.60;;;6.40;99.90;;;;;;5010536;28;20038;-66
2023/03/07 00:13:42;;;;;;;12.00;2.25;;;6.50;38.80;;;;;;5008606;28;20130;-66
2023/03/07 00:16:11;;;;;;;13.93;2.55;;;6.50;1.00;;;;;;5009815;28;20045;-66
2023/03/07 00:18:36;;;;;;;19.73;2.97;;;6.30;99.90;;;;;;5009461;28;20045;-67
2023/03/07 00:21:05;;;;;;;15.15;2.75;;;6.30;99.90;;;;;;5010296;28;20108;-66
2023/03/07 00:23:32;;;;;;;20.67;3.20;;;6.40;99.90;;;;;;5009069;28;20040;-66
2023/03/07 00:26:06;;;;;;;13.10;2.50;;;6.30;99.90;;;;;;5007283;28;20463;-66
2023/03/07 00:28:32;;;;;;;12.02;2.65;;;6.50;91.70;;;;;;5005492;28;20040;-66
2023/03/07 00:31:03;;;;;;;9.05;2.05;;;6.30;35.70;;;;;;5025158;28;20088;-66
2023/03/07 00:33:29;;;;;;;10.63;2.40;;;6.30;1.00;;;;;;5006772;28;20099;-66
2023/03/07 00:36:03;;;;;;;15.25;2.70;;;6.50;1.00;;;;;;5004981;28;20041;-66
2023/03/07 00:38:30;;;;;;;22.42;2.83;;;6.20;1.00;;;;;;5010005;28;20088;-65
2023/03/07 00:40:58;;;;;;;17.45;3.20;;;6.10;1.00;;;;;;5010123;28;20579;-66
2023/03/07 00:43:24;;;;;;;12.20;2.70;;;6.40;1.00;;;;;;5004219;28;20046;-66
2023/03/07 00:45:49;;;;;;;12.43;2.60;;;6.20;1.00;;;;;;5010857;28;20548;-66
2023/03/07 00:48:17;;;;;;;22.73;3.13;;;6.40;1.00;;;;;;5022121;28;20081;-66
2023/03/07 00:50:43;;;;;;;16.73;2.50;;;6.40;1.00;;;;;;4990968;28;20038;-66
2023/03/07 00:53:08;;;;;;;19.85;2.88;;;6.30;1.00;;;;;;5007648;28;20088;-67
2023/03/07 00:55:34;;;;;;;12.73;2.35;;;6.40;1.00;;;;;;5009313;28;21416;-66
2023/03/07 00:57:59;;;;;;;16.67;3.08;;;6.10;99.90;;;;;;5024567;28;20041;-66
2023/03/07 01:00:25;;;;;;;13.15;2.47;;;6.10;99.90;;;;;;5010789;28;20385;-66
2023/03/07 01:02:50;;;;;;;13.85;2.63;;;6.40;99.90;;;;;;5008775;28;20065;-66
2023/03/07 01:05:16;;;;;;;8.93;2.05;;;6.20;99.90;;;;;;5024796;28;20034;-66
2023/03/07 01:07:42;;;;;;;7.68;1.98;;;6.40;99.90;;;;;;5009606;28;20665;-66
2023/03/07 01:10:08;;;;;;;15.05;2.22;;;6.10;99.90;;;;;;5010944;28;20034;-66
2023/03/07 01:12:33;;;;;;;18.70;3.17;;;6.40;99.90;;;;;;5013509;28;20127;-66
2023/03/07 01:14:59;;;;;;;20.67;2.45;;;6.40;99.90;;;;;;5012949;28;20093;-66
2023/03/07 01:17:25;;;;;;;14.18;2.72;;;6.10;99.90;;;;;;5013542;28;20168;-66
2023/03/07 01:19:50;;;;;;;13.05;2.42;;;6.30;99.90;;;;;;5014100;28;20096;-66
2023/03/07 01:22:16;;;;;;;15.73;2.50;;;6.00;99.90;;;;;;5013749;28;20038;-65
2023/03/07 01:24:41;;;;;;;9.65;2.20;;;6.20;99.90;;;;;;5012764;28;20064;-65
2023/03/07 01:27:07;;;;;;;13.15;2.67;;;6.20;99.90;;;;;;5012803;28;20164;-65
2023/03/07 01:29:33;;;;;;;10.98;2.50;;;6.10;99.90;;;;;;5013856;28;20060;-65
2023/03/07 01:31:58;;;;;;;14.32;2.38;;;6.10;99.90;;;;;;5007039;28;20181;-65
2023/03/07 01:34:24;;;;;;;18.73;2.78;;;6.10;99.90;;;;;;5012226;28;20049;-68
2023/03/07 01:36:49;;;;;;;13.27;2.42;;;6.30;99.90;;;;;;5011753;28;20037;-72
2023/03/07 01:39:16;;;;;;;17.42;2.42;;;6.20;99.90;;;;;;5012898;28;20038;-71
2023/03/07 01:41:43;;;;;;;7.47;2.17;;;5.90;99.90;;;;;;5008885;28;20035;-71
2023/03/07 01:44:21;;;;;;;14.43;2.25;;;6.50;99.90;;;;;;4993594;28;20057;-71
2023/03/07 01:46:55;;;;;;;13.85;2.50;;;6.10;99.90;;;;;;5010477;28;20411;-71
2023/03/07 01:49:37;;;;;;;13.95;2.85;;;5.90;99.90;;;;;;5028573;28;20403;-71
2023/03/07 01:52:03;;;;;;;15.82;2.30;;;5.90;99.90;;;;;;4993474;28;20042;-73
2023/03/07 01:54:31;;;;;;;10.38;2.47;;;5.90;99.90;;;;;;4992384;28;20034;-72
2023/03/07 01:56:58;;;;;;;12.93;2.50;;;5.90;99.90;;;;;;4995133;28;20506;-72
2023/03/07 01:59:39;;;;;;;12.63;2.40;;;6.10;99.90;;;;;;5011557;28;20104;-75
2023/03/07 02:02:10;;;;;;;14.57;2.95;;;6.60;99.90;;;;;;5005871;28;20069;-75
2023/03/07 02:04:59;;;;;;;19.05;2.70;;;6.00;99.90;;;;;;5012065;28;20065;-73
2023/03/07 02:07:32;;;;;;;16.30;2.42;;;5.90;99.90;;;;;;5027944;28;20041;-70
2023/03/07 02:10:00;;;;;;;11.70;2.67;;;5.70;99.90;;;;;;5009833;28;20598;-71
2023/03/07 02:12:25;;;;;;;10.02;2.13;;;6.10;99.90;;;;;;4992304;28;20104;-71
2023/03/07 02:14:51;;;;;;;11.38;2.53;;;5.60;99.90;;;;;;5006442;28;20504;-73
2023/03/07 02:17:18;;;;;;;34.58;3.90;;;5.70;99.90;;;;;;4996968;28;20046;-72
2023/03/07 02:20:01;;;;;;;13.45;2.45;;;5.70;99.90;;;;;;5011026;28;20050;-72
2023/03/07 02:22:27;;;;;;;13.93;2.38;;;5.80;99.90;;;;;;5018660;28;20073;-70
2023/03/07 02:25:12;;;;;;;20.00;3.40;;;5.70;99.90;;;;;;5009872;28;20046;-70
2023/03/07 02:27:38;;;;;;;14.73;2.45;;;5.60;99.90;;;;;;5005581;28;20408;-69
2023/03/07 02:30:05;;;;;;;13.73;2.47;;;5.80;99.90;;;;;;5023793;28;20061;-69
2023/03/07 02:32:31;;;;;;;12.23;2.10;;;5.80;99.90;;;;;;5011744;28;20653;-70
2023/03/07 02:34:57;;;;;;;11.30;2.35;;;5.70;99.90;;;;;;5010003;28;20057;-71
2023/03/07 02:37:32;;;;;;;10.18;2.03;;;5.70;99.90;;;;;;5002388;28;20042;-72
2023/03/07 02:40:04;;;;;;;12.38;2.17;;;5.70;99.90;;;;;;5008069;28;20488;-71
2023/03/07 02:42:34;;;;;;;10.73;2.17;;;5.50;99.90;;;;;;5024590;28;20037;-71
2023/03/07 02:45:05;;;;;;;10.15;1.98;;;5.50;99.90;;;;;;5010607;28;20049;-72
2023/03/07 02:47:30;;;;;;;6.93;1.70;;;5.50;99.90;;;;;;5010361;28;20108;-73
2023/03/07 02:49:56;;;;;;;8.65;1.88;;;5.40;99.90;;;;;;5011512;28;20443;-73
2023/03/07 02:52:22;;;;;;;15.32;2.30;;;6.10;99.90;;;;;;5010645;28;20056;-71
2023/03/07 02:54:48;;;;;;;8.88;1.70;;;5.40;99.90;;;;;;5010868;28;20042;-73
2023/03/07 02:57:14;;;;;;;16.40;2.33;;;5.40;99.90;;;;;;5009242;28;20095;-73
2023/03/07 02:59:40;;;;;;;17.50;2.35;;;5.40;99.90;;;;;;5010764;28;20050;-74
2023/03/07 03:02:06;;;;;;;8.15;2.00;;;5.40;99.90;;;;;;5001502;28;20096;-72
2023/03/07 03:04:32;;;;;;;8.20;1.75;;;5.50;99.90;;;;;;5010829;28;20120;-71
2023/03/07 03:06:57;;;;;;;13.38;2.40;;;5.30;99.90;;;;;;4996844;28;20492;-72
2023/03/07 03:09:23;;;;;;;14.52;2.47;;;5.50;99.90;;;;;;5007091;28;20092;-73
2023/03/07 03:11:48;;;;;;;15.80;2.60;;;5.30;99.90;;;;;;4993958;28;20034;-73
2023/03/07 03:14:14;;;;;;;12.05;2.45;;;5.50;99.90;;;;;;5010533;28;20077;-74
2023/03/07 03:16:40;;;;;;;14.02;2.80;;;5.60;99.90;;;;;;4983248;28;20050;-75
2023/03/07 03:19:06;;;;;;;6.38;1.80;;;5.40;99.90;;;;;;4990985;28;20132;-73
2023/03/07 03:21:32;;;;;;;15.85;2.95;;;5.30;99.90;;;;;;4996374;28;20043;-73
2023/03/07 03:23:57;;;;;;;18.05;2.35;;;5.50;99.90;;;;;;4990764;28;20053;-71
2023/03/07 03:26:23;;;;;;;12.73;2.50;;;5.60;99.90;;;;;;4993342;28;20038;-70
2023/03/07 03:28:49;;;;;;;13.20;2.60;;;5.50;99.90;;;;;;5014171;28;20463;-67
2023/03/07 03:31:15;;;;;;;14.95;2.75;;;5.40;99.90;;;;;;5003277;28;20038;-69
2023/03/07 03:33:45;;;;;;;12.45;2.35;;;5.70;99.90;;;;;;5002313;28;20057;-71
2023/03/07 03:36:14;;;;;;;10.13;2.60;;;5.50;99.90;;;;;;5009819;28;20587;-72
2023/03/07 03:38:40;;;;;;;13.95;2.75;;;5.80;99.90;;;;;;5010073;28;20042;-73
2023/03/07 03:41:09;;;;;;;10.90;2.60;;;5.70;99.90;;;;;;5004171;28;20045;-71
2023/03/07 03:43:35;;;;;;;11.07;2.53;;;5.50;99.90;;;;;;4998125;28;20041;-73
2023/03/07 03:46:00;;;;;;;22.52;3.67;;;5.50;99.90;;;;;;5005777;28;20042;-73
2023/03/07 03:48:26;;;;;;;16.73;3.25;;;5.50;99.90;;;;;;4985239;28;20065;-74
2023/03/07 03:51:03;;;;;;;11.20;3.00;;;5.60;99.90;;;;;;5009748;28;20038;-74
2023/03/07 03:53:30;;;;;;;11.15;2.00;;;5.50;99.90;;;;;;5026330;28;20038;-73
2023/03/07 03:56:08;;;;;;;5.68;1.90;;;5.40;99.90;;;;;;5025393;28;20049;-73
2023/03/07 03:58:34;;;;;;;6.40;2.00;;;5.40;99.90;;;;;;5008554;28;20054;-74
2023/03/07 04:01:06;;;;;;;8.40;2.85;;;5.50;99.90;;;;;;5009644;28;20053;-76
2023/03/07 04:03:37;;;;;;;11.13;2.22;;;5.60;99.90;;;;;;5026141;28;20053;-75
2023/03/07 04:06:05;;;;;;;11.98;2.30;;;5.60;99.90;;;;;;5008110;28;20034;-74
2023/03/07 04:08:31;;;;;;;10.85;2.53;;;5.50;99.90;;;;;;5008629;28;20559;-73
2023/03/07 04:10:57;;;;;;;14.70;2.78;;;5.50;99.90;;;;;;5009562;28;20124;-71
2023/03/07 04:13:23;;;;;;;11.40;3.38;;;5.60;99.90;;;;;;5009230;28;20042;-73
2023/03/07 04:15:50;;;;;;;13.40;2.45;;;5.50;99.90;;;;;;5008385;28;20033;-70
2023/03/07 04:18:15;;;;;;;15.18;2.88;;;5.50;99.90;;;;;;5008531;28;20048;-72
2023/03/07 04:20:45;;;;;;;12.20;2.47;;;5.50;99.90;;;;;;5008828;28;20578;-74
2023/03/07 04:23:11;;;;;;;9.52;2.28;;;5.50;99.90;;;;;;5013719;28;20050;-72
2023/03/07 04:25:36;;;;;;;10.32;2.10;;;5.50;99.90;;;;;;5008424;28;20120;-74
2023/03/07 04:28:02;;;;;;;12.63;2.55;;;5.50;99.90;;;;;;5007727;28;20076;-74
2023/03/07 04:30:28;;;;;;;15.32;2.80;;;5.60;99.90;;;;;;5008392;28;20037;-75
2023/03/07 04:32:54;;;;;;;11.45;2.85;;;5.60;99.90;;;;;;5025780;28;20048;-73
2023/03/07 04:35:20;;;;;;;11.88;2.78;;;5.60;99.90;;;;;;5009339;28;20116;-74
2023/03/07 04:37:45;;;;;;;10.73;2.15;;;5.40;99.90;;;;;;5004905;28;20501;-76
2023/03/07 04:40:12;;;;;;;18.05;2.85;;;5.60;99.90;;;;;;5007913;28;20164;-78
2023/03/07 04:42:37;;;;;;;13.32;2.50;;;5.40;99.90;;;;;;5007457;28;20431;-77
2023/03/07 04:45:03;;;;;;;7.57;1.63;;;5.50;99.90;;;;;;5011244;28;20038;-77
2023/03/07 04:47:29;;;;;;;9.05;1.98;;;5.40;99.90;;;;;;4995678;28;20499;-77
2023/03/07 04:49:55;;;;;;;10.13;1.67;;;5.40;99.90;;;;;;5012837;28;20116;-77
2023/03/07 04:52:20;;;;;;;8.82;1.60;;;5.50;99.90;;;;;;5010216;28;20096;-76
2023/03/07 04:54:46;;;;;;;9.18;1.92;;;5.40;99.90;;;;;;5012337;28;20053;-75
2023/03/07 04:57:11;;;;;;;9.77;1.85;;;5.50;99.90;;;;;;5011532;28;20100;-75
2023/03/07 04:59:38;;;;;;;5.60;1.75;;;5.50;99.90;;;;;;5012936;28;20136;-76
2023/03/07 05:02:10;;;;;;;8.35;1.95;;;5.40;99.90;;;;;;5004291;28;20038;-76
2023/03/07 05:04:36;;;;;;;12.27;2.05;;;5.50;99.90;;;;;;5010455;28;20052;-76
2023/03/07 05:07:02;;;;;;;10.15;2.25;;;5.40;99.90;;;;;;5003979;28;20042;-76
2023/03/07 05:09:28;;;;;;;6.32;2.10;;;5.50;99.90;;;;;;5010160;28;20037;-74
2023/03/07 05:11:53;;;;;;;11.00;2.15;;;5.70;99.90;;;;;;5006195;28;20042;-75
2023/03/07 05:14:19;;;;;;;11.82;2.22;;;5.50;99.90;;;;;;5005417;28;20042;-75
2023/03/07 05:16:44;;;;;;;13.32;2.47;;;5.50;99.90;;;;;;5004540;28;20042;-76
2023/03/07 05:19:12;;;;;;;11.77;2.65;;;5.70;99.90;;;;;;5008275;28;20061;-70
2023/03/07 05:21:39;;;;;;;11.85;2.25;;;5.30;99.90;;;;;;5028758;28;20063;-73
2023/03/07 05:24:05;;;;;;;9.93;1.90;;;5.30;99.90;;;;;;5028372;28;20052;-75
2023/03/07 05:26:32;;;;;;;9.05;2.05;;;5.30;99.90;;;;;;5009550;28;20038;-75
2023/03/07 05:28:58;;;;;;;9.63;2.08;;;5.30;99.90;;;;;;5025297;28;20092;-76
2023/03/07 05:31:23;;;;;;;7.53;1.50;;;5.30;99.90;;;;;;5011497;28;20435;-75
2023/03/07 05:33:49;;;;;;;6.10;1.73;;;6.60;99.90;;;;;;5011966;28;20049;-76
2023/03/07 05:36:15;;;;;;;7.13;1.50;;;5.20;99.90;;;;;;5028132;28;20041;-76
2023/03/07 05:38:40;;;;;;;8.05;2.00;;;5.10;99.90;;;;;;5004303;28;20120;-75
2023/03/07 05:41:06;;;;;;;9.88;1.92;;;5.30;99.90;;;;;;5026883;28;20435;-75
2023/03/07 05:43:32;;;;;;;10.70;2.30;;;5.10;99.90;;;;;;5006993;28;20042;-73
2023/03/07 05:45:57;;;;;;;13.00;2.17;;;5.10;99.90;;;;;;5010597;28;20518;-74
2023/03/07 05:48:23;;;;;;;7.95;2.25;;;5.00;1.00;;;;;;5008620;28;20033;-73
2023/03/07 05:50:48;;;;;;;7.82;1.77;;;5.00;1.00;;;;;;5008915;28;20038;-70
2023/03/07 05:53:14;;;;;;;10.93;1.73;;;4.90;1.00;;;;;;5027918;28;20136;-71
2023/03/07 05:55:39;;;;;;;7.65;1.58;;;4.60;49.20;;;;;;4992617;28;20050;-71
2023/03/07 05:58:08;;;;;;;9.35;1.92;;;5.00;76.40;;;;;;5007328;28;20503;-69
2023/03/07 06:00:34;;;;;;;6.35;1.38;;;4.60;99.90;;;;;;5006454;28;20049;-74
2023/03/07 06:03:03;;;;;;;12.23;2.35;;;4.40;99.90;;;;;;5006456;28;20042;-73
2023/03/07 06:05:29;;;;;;;12.27;2.13;;;4.40;99.90;;;;;;5011909;28;20026;-72
2023/03/07 06:07:55;;;;;;;9.60;1.90;;;4.70;99.90;;;;;;5009496;28;20049;-74
2023/03/07 06:10:20;;;;;;;12.02;2.30;;;4.80;99.90;;;;;;5009557;28;20404;-74
2023/03/07 06:12:53;;;;;;;13.07;2.47;;;4.60;99.90;;;;;;5010586;28;20136;-76
2023/03/07 06:15:20;;;;;;;8.68;2.05;;;4.70;99.90;;;;;;5009942;28;20026;-74
2023/03/07 06:17:45;;;;;;;14.00;1.77;;;4.50;99.90;;;;;;5009260;28;20061;-75
2023/03/07 06:20:11;;;;;;;9.93;1.92;;;4.80;1.00;;;;;;5009980;28;20939;-74
2023/03/07 06:22:37;;;;;;;10.95;2.17;;;5.10;1.00;;;;;;5010022;28;20033;-74
2023/03/07 06:25:04;;;;;;;9.82;2.03;;;4.70;1.00;;;;;;5010474;28;20065;-77
2023/03/07 06:27:34;;;;;;;10.73;2.13;;;5.10;1.00;;;;;;5009709;28;20037;-77
2023/03/07 06:30:00;;;;;;;5.65;1.58;;;5.20;1.00;;;;;;5011784;28;20550;-66
2023/03/07 06:32:26;;;;;;;5.47;1.58;;;4.70;1.00;;;;;;5024463;28;20042;-66
2023/03/07 06:34:52;;;;;;;9.15;1.67;;;5.00;1.00;;;;;;5023420;28;20038;-66
2023/03/07 06:37:17;;;;;;;8.20;1.88;;;4.30;1.00;;;;;;5001717;28;20550;-66
2023/03/07 06:39:43;;;;;;;8.45;1.50;;;4.60;1.00;;;;;;5010280;28;20487;-65
2023/03/07 06:42:09;;;;;;;7.35;1.58;;;4.30;1.00;;;;;;5006883;28;20066;-65
2023/03/07 06:44:34;;;;;;;6.10;1.42;;;4.30;1.00;;;;;;5009550;28;20121;-66
2023/03/07 06:47:00;;;;;;;7.65;2.08;;;4.10;1.00;;;;;;5007506;28;20029;-65
2023/03/07 06:49:25;;;;;;;9.70;1.40;;;4.80;1.00;;;;;;5008792;28;20037;-65
2023/03/07 06:51:51;;;;;;;7.50;1.60;;;4.70;1.00;;;;;;5004400;28;20034;-65
2023/03/07 06:54:17;;;;;;;8.52;1.50;;;4.10;1.00;;;;;;5008321;28;20038;-65
2023/03/07 06:56:42;;;;;;;5.88;1.23;;;4.90;1.00;;;;;;5023627;28;20046;-65
2023/03/07 06:59:09;;;;;;;9.65;1.42;;;4.80;1.00;;;;;;5011156;28;20042;-65
2023/03/07 07:01:36;;;;;;;8.70;1.58;;;4.90;1.00;;;;;;5002486;28;20133;-65
2023/03/07 07:04:01;;;;;;;3.65;1.02;;;4.80;1.00;;;;;;5008355;28;20046;-65
2023/03/07 07:06:27;;;;;;;9.05;1.58;;;4.80;1.00;;;;;;5011591;28;20668;-65
2023/03/07 07:08:57;;;;;;;15.73;1.55;;;4.80;99.90;;;;;;5011841;28;20442;-65
2023/03/07 07:11:24;;;;;;;5.32;1.55;;;4.40;99.90;;;;;;5011604;28;20446;-65
2023/03/07 07:13:49;;;;;;;5.25;1.40;;;4.90;99.90;;;;;;5010938;28;20049;-65
2023/03/07 07:16:16;;;;;;;14.27;3.65;;;4.80;99.90;;;;;;5011817;28;20041;-66
2023/03/07 07:18:42;;;;;;;17.40;2.28;;;4.90;99.90;;;;;;5010118;28;20132;-67
2023/03/07 07:21:08;;;;;;;8.85;2.00;;;5.10;99.90;;;;;;5010063;28;20189;-67
2023/03/07 07:23:34;;;;;;;13.68;2.08;;;5.20;99.90;;;;;;5001481;28;20042;-67
2023/03/07 07:26:00;;;;;;;9.30;1.92;;;5.20;99.90;;;;;;5011221;28;20038;-67
2023/03/07 07:28:26;;;;;;;10.57;1.77;;;5.10;99.90;;;;;;5011207;28;20049;-67
2023/03/07 07:30:52;;;;;;;12.27;1.80;;;5.40;99.90;;;;;;5011529;28;20041;-67
2023/03/07 07:33:18;;;;;;;8.43;1.83;;;5.20;99.90;;;;;;5002850;28;20050;-67
2023/03/07 07:35:45;;;;;;;7.70;1.60;;;5.00;99.90;;;;;;5009778;28;20054;-64
2023/03/07 07:38:11;;;;;;;9.38;1.65;;;5.10;99.90;;;;;;5009881;28;20042;-66
2023/03/07 07:40:37;;;;;;;13.32;2.10;;;5.10;99.90;;;;;;5009569;28;20041;-66
2023/03/07 07:43:03;;;;;;;10.57;2.35;;;5.10;96.70;;;;;;5010121;28;20048;-67
2023/03/07 07:45:28;;;;;;;9.05;1.83;;;5.10;94.30;;;;;;5011387;28;20129;-66
2023/03/07 07:47:54;;;;;;;10.63;1.95;;;5.50;63.00;;;;;;5010234;28;20034;-67
2023/03/07 07:50:20;;;;;;;13.70;2.47;;;5.40;1.00;;;;;;5004827;28;20041;-67
2023/03/07 07:52:47;;;;;;;11.18;1.90;;;5.20;1.00;;;;;;5008137;28;20038;-67
2023/03/07 07:55:13;;;;;;;8.27;1.88;;;5.40;1.00;;;;;;5003036;28;20120;-66
2023/03/07 07:57:42;;;;;;;12.18;2.65;;;5.30;1.00;;;;;;5010285;28;20496;-66
2023/03/07 08:00:10;;;;;;;10.40;1.90;;;5.40;1.00;;;;;;5002700;28;20037;-69
2023/03/07 08:02:37;;;;;;;7.13;1.55;;;5.30;1.00;;;;;;5002236;28;20505;-72
2023/03/07 08:05:06;;;;;;;5.82;1.50;;;4.90;1.00;;;;;;4983640;28;20045;-71
2023/03/07 08:07:32;;;;;;;6.85;1.48;;;4.10;1.00;;;;;;5008303;28;20088;-69
2023/03/07 08:09:57;;;;;;;4.60;1.20;;;4.40;1.00;;;;;;4991558;28;20050;-71
2023/03/07 08:12:23;;;;;;;6.43;1.45;;;3.60;1.00;;;;;;4998536;28;20045;-72
2023/03/07 08:14:48;;;;;;;7.05;1.73;;;3.60;1.00;;;;;;5008630;28;20038;-73
2023/03/07 08:17:14;;;;;;;11.18;1.85;;;4.20;1.00;;;;;;5000769;28;20072;-71
2023/03/07 08:19:39;;;;;;;9.15;1.98;;;4.20;48.50;;;;;;4989450;28;20081;-72
2023/03/07 08:22:05;;;;;;;11.20;2.17;;;3.40;99.90;;;;;;5005584;28;20049;-71
2023/03/07 08:24:33;;;;;;;5.60;1.42;;;4.30;99.90;;;;;;5007176;28;20050;-66
2023/03/07 08:27:00;;;;;;;12.57;1.80;;;3.80;99.90;;;;;;5009376;28;20041;-66
2023/03/07 08:29:26;;;;;;;11.95;1.75;;;4.20;99.90;;;;;;5010672;28;20061;-66
2023/03/07 08:31:53;;;;;;;8.55;1.85;;;4.30;99.90;;;;;;5009099;28;20497;-66
2023/03/07 08:34:19;;;;;;;12.85;2.47;;;4.40;99.90;;;;;;5010629;28;20045;-66
2023/03/07 08:36:44;;;;;;;12.68;1.92;;;4.40;99.90;;;;;;5000828;28;20413;-66
2023/03/07 08:39:10;;;;;;;9.70;1.80;;;4.50;99.90;;;;;;5010889;28;20037;-66
2023/03/07 08:41:36;;;;;;;9.57;2.05;;;4.40;99.90;;;;;;5007361;28;20618;-66
2023/03/07 08:44:02;;;;;;;9.00;1.98;;;4.60;99.90;;;;;;5010316;28;20041;-66
2023/03/07 08:46:27;;;;;;;9.85;2.08;;;4.40;99.90;;;;;;5010217;28;20030;-65
2023/03/07 08:48:53;;;;;;;10.82;2.35;;;4.40;99.90;;;;;;5010961;28;20044;-65
2023/03/07 08:51:18;;;;;;;17.58;2.40;;;5.10;99.90;;;;;;5009548;28;20094;-66
2023/03/07 08:53:45;;;;;;;19.60;2.83;;;5.10;99.90;;;;;;5010488;28;20038;-66
2023/03/07 08:56:13;;;;;;;8.50;2.10;;;5.00;99.90;;;;;;5000536;28;20117;-66
2023/03/07 08:58:40;;;;;;;8.27;2.45;;;5.00;99.90;;;;;;4998925;28;20045;-66
2023/03/07 09:01:07;;;;;;;15.20;2.20;;;5.40;99.90;;;;;;5010174;28;20041;-66
2023/03/07 09:03:33;;;;;;;16.17;2.38;;;5.70;99.90;;;;;;5009210;28;20407;-66
2023/03/07 09:06:00;;;;;;;15.18;2.53;;;5.70;99.90;;;;;;5010022;28;20030;-67
2023/03/07 09:08:25;;;;;;;12.60;2.00;;;5.50;99.90;;;;;;5008801;28;20037;-67
2023/03/07 09:10:51;;;;;;;14.05;2.45;;;5.40;99.90;;;;;;5005143;28;20049;-67
2023/03/07 09:13:17;;;;;;;13.98;2.25;;;5.30;99.90;;;;;;5010235;28;20041;-66
2023/03/07 09:15:43;;;;;;;12.52;2.63;;;5.70;99.90;;;;;;5010108;28;20045;-66
2023/03/07 09:18:09;;;;;;;12.18;2.15;;;5.80;99.90;;;;;;5021717;28;20038;-66
2023/03/07 09:20:37;;;;;;;11.95;2.45;;;5.80;99.90;;;;;;5003346;28;20042;-67
2023/03/07 09:23:04;;;;;;;13.30;2.42;;;5.80;4.10;;;;;;5003203;28;20052;-66
2023/03/07 09:25:30;;;;;;;12.20;1.80;;;5.70;1.00;;;;;;4996256;28;20050;-66
2023/03/07 09:27:55;;;;;;;10.50;2.22;;;5.90;99.90;;;;;;5025485;28;20462;-66
2023/03/07 09:30:21;;;;;;;11.10;2.20;;;5.70;99.90;;;;;;5008685;28;20042;-67
2023/03/07 09:32:48;;;;;;;8.07;2.13;;;5.50;99.90;;;;;;5008664;28;20038;-66
2023/03/07 09:35:14;;;;;;;9.35;2.38;;;5.40;99.90;;;;;;5013002;28;20531;-67
2023/03/07 09:37:40;;;;;;;7.55;1.75;;;5.00;99.90;;;;;;4995312;28;20046;-67
2023/03/07 09:40:06;;;;;;;8.13;1.95;;;4.90;99.90;;;;;;5002287;28;20100;-66
2023/03/07 09:42:52;;;;;;;9.13;1.85;;;4.90;99.90;;;;;;5007653;28;20460;-66
2023/03/07 09:45:28;;;;;;;14.50;2.20;;;5.10;99.90;;;;;;5013650;28;20107;-66
2023/03/07 09:47:56;;;;;;;;;;;4.90;99.90;;;;;;4994740;28;20449;-66
2023/03/07 09:50:26;;;;;;;12.30;1.88;;;5.00;99.90;;;;;;4997533;28;19917;-66
2023/03/07 09:52:58;;;;;;;12.65;2.47;;;5.30;99.90;;;;;;5012863;28;20042;-67
2023/03/07 09:55:25;;;;;;;19.52;2.88;;;5.30;99.90;;;;;;5012206;28;20217;-66
2023/03/07 09:57:55;;;;;;;8.73;2.03;;;5.60;99.90;;;;;;5003565;28;20099;-66
2023/03/07 10:00:29;;;;;;;11.00;2.47;;;5.70;99.90;;;;;;5011993;28;20076;-67
2023/03/07 10:03:04;;;;;;;9.90;2.17;;;5.90;99.90;;;;;;5009968;28;20518;-66
2023/03/07 10:05:44;;;;;;;10.90;2.30;;;6.10;99.90;;;;;;5011689;28;20038;-66
2023/03/07 10:08:30;;;;;;;16.35;2.17;;;5.90;99.90;;;;;;5013424;28;20046;-66
2023/03/07 10:11:14;;;;;;;12.75;2.33;;;5.90;99.90;;;;;;5011012;28;20459;-66
2023/03/07 10:13:55;;;;;;;14.65;2.20;;;5.90;99.90;;;;;;5006555;28;20377;-66
2023/03/07 10:16:34;;;;;;;9.75;1.73;;;5.90;99.90;;;;;;5006985;28;20038;-66
2023/03/07 10:19:22;;;;;;;10.15;2.55;;;6.10;99.90;;;;;;5006101;28;20037;-66
2023/03/07 10:22:10;;;;;;;10.40;2.25;;;6.30;99.90;;;;;;5011814;28;20045;-66
2023/03/07 10:24:46;;;;;;;9.57;2.10;;;5.80;99.90;;;;;;5000418;28;20036;-66
2023/03/07 10:27:14;;;;;;;13.35;1.98;;;5.70;99.90;;;;;;5004172;28;20045;-66
2023/03/07 10:29:47;;;;;;;12.90;2.13;;;5.70;99.90;;;;;;5013021;28;20113;-66
2023/03/07 10:32:43;;;;;;;11.95;2.42;;;5.60;99.90;;;;;;5000676;28;20029;-67
2023/03/07 10:35:12;;;;;;;10.10;2.65;;;5.90;99.90;;;;;;4991086;28;20045;-66
2023/03/07 10:38:01;;;;;;;12.82;2.67;;;5.70;99.90;;;;;;4995683;28;20401;-67
2023/03/07 10:40:42;;;;;;;13.68;2.20;;;5.90;99.90;;;;;;4993578;28;20073;-66
2023/03/07 10:43:19;;;;;;;15.63;2.92;;;6.00;99.90;;;;;;4996091;28;20030;-66
2023/03/07 10:45:45;;;;;;;10.77;1.95;;;6.00;99.90;;;;;;5012170;28;20042;-66
2023/03/07 10:48:17;;;;;;;7.40;1.70;;;6.00;99.90;;;;;;5012572;28;20049;-67
2023/03/07 10:51:06;;;;;;;10.70;1.83;;;6.10;99.90;;;;;;5011026;28;20046;-67
2023/03/07 10:53:35;;;;;;;15.63;2.55;;;6.10;78.30;;;;;;5012141;28;20420;-67
2023/03/07 10:56:10;;;;;;;11.45;2.17;;;6.10;51.00;;;;;;5009926;28;20091;-66
2023/03/07 10:58:35;;;;;;;7.40;2.00;;;6.20;45.30;;;;;;5001057;28;20041;-66
2023/03/07 11:01:18;;;;;;;10.25;2.15;;;6.20;24.40;;;;;;5011537;28;20052;-67
2023/03/07 11:03:51;;;;;;;8.18;1.77;;;6.30;6.60;;;;;;5012033;28;20559;-66
2023/03/07 11:06:34;;;;;;;8.48;1.90;;;6.40;1.00;;;;;;5011262;28;20072;-66
2023/03/07 11:09:27;;;;;;;14.35;2.65;;;6.60;1.00;;;;;;5012328;28;20120;-66
2023/03/07 11:11:58;;;;;;;12.32;2.05;;;6.70;1.00;;;;;;4997228;28;20109;-67
2023/03/07 11:14:27;;;;;;;11.68;2.08;;;6.90;1.00;;;;;;5004165;28;20496;-67
2023/03/07 11:17:02;;;;;;;13.77;1.83;;;6.90;1.00;;;;;;5010122;28;20524;-67
2023/03/07 11:19:40;;;;;;;13.52;2.42;;;6.80;1.00;;;;;;5009141;28;20065;-66
2023/03/07 11:22:22;;;;;;;7.38;1.88;;;7.00;1.00;;;;;;4997030;28;20058;-67
2023/03/07 11:25:27;;;;;;;11.05;2.10;;;7.10;1.00;;;;;;5004831;28;20033;-67
2023/03/07 11:27:54;;;;;;;11.80;1.75;;;7.00;1.00;;;;;;5009090;28;20582;-67
2023/03/07 11:30:22;;;;;;;11.07;1.85;;;6.90;1.00;;;;;;5012504;28;20038;-66
2023/03/07 11:33:10;;;;;;;9.15;2.05;;;6.90;1.00;;;;;;5011076;28;20046;-67
2023/03/07 11:35:45;;;;;;;10.57;1.80;;;6.90;1.00;;;;;;5010934;28;20041;-67
2023/03/07 11:38:38;;;;;;;13.73;2.10;;;6.90;1.00;;;;;;5010460;28;20083;-67
2023/03/07 11:41:15;;;;;;;7.57;1.58;;;6.90;1.00;;;;;;5010960;28;20045;-67
2023/03/07 11:43:45;;;;;;;7.18;1.60;;;7.00;1.00;;;;;;5011185;28;20125;-66
2023/03/07 11:46:31;;;;;;;9.88;2.13;;;7.00;1.00;;;;;;5010844;28;20571;-67
2023/03/07 11:49:14;;;;;;;7.32;1.60;;;6.80;1.00;;;;;;5007584;28;20463;-66
2023/03/07 11:51:50;;;;;;;5.65;1.33;;;6.80;1.00;;;;;;5026084;28;20053;-66
2023/03/07 11:54:36;;;;;;;4.88;1.50;;;6.70;1.00;;;;;;5010814;28;20099;-66
2023/03/07 11:57:31;;;;;;;8.77;1.50;;;6.80;1.00;;;;;;5011204;28;20046;-66
2023/03/07 12:00:02;;;;;;;8.18;1.50;;;6.80;1.00;;;;;;5000340;28;20496;-66
2023/03/07 12:02:58;;;;;;;11.88;2.00;;;6.90;1.00;;;;;;5002998;28;20052;-66
2023/03/07 12:05:51;;;;;;;11.33;1.47;;;6.90;1.00;;;;;;5011363;28;20038;-66
2023/03/07 12:08:45;;;;;;;5.53;1.55;;;6.90;1.00;;;;;;4991545;28;20274;-66
2023/03/07 12:11:35;;;;;;;5.97;1.83;;;6.90;1.00;;;;;;4991592;28;20077;-66
2023/03/07 12:14:32;;;;;;;3.60;1.20;;;7.10;1.00;;;;;;4990404;28;20405;-66
2023/03/07 12:17:42;;;;;;;6.30;1.65;;;7.00;1.00;;;;;;5004266;28;20116;-66
2023/03/07 12:20:24;;;;;;;7.63;1.80;;;7.10;1.00;;;;;;4989425;28;20046;-66
2023/03/07 12:23:12;;;;;;;7.18;1.67;;;7.10;1.00;;;;;;4991742;28;20042;-66
2023/03/07 12:25:44;;;;;;;8.57;1.80;;;7.20;1.00;;;;;;5001069;28;20120;-66
2023/03/07 12:28:32;;;;;;;9.20;1.95;;;7.40;1.00;;;;;;4991390;28;20088;-67
2023/03/07 12:31:10;;;;;;;6.43;1.67;;;7.20;1.00;;;;;;4990455;28;20077;-66
2023/03/07 12:33:54;;;;;;;9.98;1.75;;;7.00;1.00;;;;;;5004744;28;20049;-66
2023/03/07 12:36:34;;;;;;;9.07;1.48;;;6.70;1.00;;;;;;5010168;28;20492;-66
2023/03/07 12:39:32;;;;;;;6.47;1.75;;;6.80;1.00;;;;;;5010669;28;20037;-66
2023/03/07 12:42:36;;;;;;;10.48;1.98;;;6.80;1.00;;;;;;5009395;28;20064;-66
2023/03/07 12:45:15;;;;;;;7.13;1.35;;;6.90;1.00;;;;;;5025836;28;20128;-66
2023/03/07 12:47:55;;;;;;;5.13;1.52;;;6.90;1.00;;;;;;5010267;28;20091;-66
2023/03/07 12:50:36;;;;;;;7.50;1.50;;;6.90;1.00;;;;;;5009319;28;20049;-66
2023/03/07 12:53:12;;;;;;;11.95;1.90;;;7.00;1.00;;;;;;5006548;28;20435;-66
2023/03/07 12:55:55;;;;;;;9.73;1.70;;;7.10;1.00;;;;;;5002182;28;20377;-66
2023/03/07 12:58:37;;;;;;;7.70;1.58;;;7.10;1.00;;;;;;5006782;28;20042;-66
2023/03/07 13:01:13;;;;;;;7.57;1.50;;;7.10;1.00;;;;;;5009804;28;20034;-66
2023/03/07 13:04:03;;;;;;;7.82;1.65;;;7.00;1.00;;;;;;5008549;28;20077;-66
2023/03/07 13:06:30;;;;;;;5.50;1.63;;;7.10;1.00;;;;;;5000611;28;20096;-66
2023/03/07 13:09:01;;;;;;;2.42;0.90;;;7.10;1.00;;;;;;5009411;28;20072;-66
2023/03/07 13:11:33;;;;;;;1.90;0.98;;;7.10;1.00;;;;;;5011665;28;20046;-66